Date,TemperatureHighF,TemperatureAvgF,TemperatureLowF,DewpointHighF,DewpointAvgF,DewpointLowF,HumidityHigh,HumidityAvg,HumidityLow,PressureMaxIn,PressureMinIn,WindSpeedMaxMPH,WindSpeedAvgMPH,GustSpeedMaxMPH,PrecipitationSumIn
2014-2-1,33,21,10,-100,-100,-100,0,0,100,0.00,40.00,0,-999,0,0.00
2014-2-2,24,12,1,-100,-100,-100,0,0,100,0.00,40.00,0,-999,0,0.00
2014-2-3,42,25,3,-100,-100,-100,0,0,100,0.00,40.00,0,-999,0,0.00
2014-2-4,26,15,2,-100,-100,-100,0,0,100,0.00,40.00,0,-999,0,0.00
2014-2-5,8,-8,-16,-100,-100,-100,0,0,100,0.00,40.00,0,-999,0,0.00
2014-2-6,9,0,-17,-100,-100,-100,0,0,100,0.00,40.00,0,-999,0,0.00
2014-2-7,44,36,25,-100,-100,-100,0,0,100,0.00,40.00,0,-999,0,0.00
2014-2-8,49,41,25,-100,-100,-100,0,0,100,0.00,40.00,0,-999,0,0.00
2014-2-9,44,31,21,-100,-100,-100,0,0,100,0.00,40.00,0,-999,0,0.00
2014-2-10,39,27,21,-100,-100,-100,0,0,100,0.00,40.00,0,-999,0,0.00
2014-2-11,49,33,16,-100,-100,-100,0,0,100,0.00,40.00,0,-999,0,0.00
2014-2-12,47,32,20,-100,-100,-100,0,0,100,0.00,40.00,0,-999,0,0.00
2014-2-13,57,49,43,-100,-100,-100,0,0,100,0.00,40.00,0,-999,0,0.00
2014-2-14,43,34,27,-100,-100,-100,0,0,100,0.00,40.00,0,-999,0,0.00
2014-2-15,52,41,29,-100,-100,-100,0,0,100,0.00,40.00,0,-999,0,0.00
2014-2-16,61,46,32,-100,-100,-100,0,0,100,0.00,40.00,0,-999,0,0.00
2014-2-17,59,46,29,-100,-100,-100,0,0,100,0.00,40.00,0,-999,0,0.00
2014-2-18,59,50,36,-100,-100,-100,0,0,100,0.00,40.00,0,-999,0,0.00
2014-2-19,58,40,25,-100,-100,-100,0,0,100,0.00,40.00,0,-999,0,0.00
2014-2-20,33,26,10,-100,-100,-100,0,0,100,0.00,40.00,0,-999,0,0.00
2014-2-21,46,38,32,-100,-100,-100,0,0,100,0.00,40.00,0,-999,0,0.00
2014-2-22,49,39,29,-100,-100,-100,0,0,100,0.00,40.00,0,-999,0,0.00
2014-2-23,50,30,23,-100,-100,-100,0,0,100,0.00,40.00,0,-999,0,0.00
2014-2-24,58,39,19,-100,-100,-100,0,0,100,0.00,40.00,0,-999,0,0.00
2014-2-25,48,22,15,-100,-100,-100,0,0,100,0.00,40.00,0,-999,0,0.00
2014-2-26,56,26,10,-100,-100,-100,0,0,100,0.00,40.00,0,-999,0,0.00
2014-2-27,59,44,19,-100,-100,-100,0,0,100,0.00,40.00,0,-999,0,0.00
2014-2-28,59,48,31,-100,-100,-100,0,0,100,0.00,40.00,0,-999,0,0.00